GCMCY EGEO-EGPO

Flight info

Callsign GCMCY
Flight time 0h 53m
Altitude 6000
Route STN
Aircraft P212/L-SBDFGIRY/SB1

Departure

Time 2026-04-30 07:20
Airport Oban Airport (EGEO)

Arrival

Time 2026-04-30 08:14
Airport Stornoway Airport (EGPO)
Time Latitude Longitude Altitude Speed Heading
2026-04-30 07:01 56.46574 -5.39804 64 ft 0 kts 185°
2026-04-30 07:14 56.46570 -5.39804 64 ft 3 kts 184°
2026-04-30 07:14 56.46567 -5.39834 63 ft 4 kts 359°
2026-04-30 07:14 56.46604 -5.39824 63 ft 7 kts 10°
2026-04-30 07:15 56.46635 -5.39847 63 ft 5 kts 250°
2026-04-30 07:15 56.46652 -5.39947 61 ft 11 kts 342°
2026-04-30 07:15 56.46757 -5.39921 63 ft 21 kts
2026-04-30 07:15 56.46885 -5.39954 60 ft 13 kts 331°
2026-04-30 07:16 56.46910 -5.39956 60 ft 0 kts 99°
2026-04-30 07:19 56.46910 -5.39955 60 ft 0 kts 99°
2026-04-30 07:19 56.46903 -5.39910 61 ft 4 kts 141°
2026-04-30 07:19 56.46882 -5.39903 60 ft 0 kts 188°
2026-04-30 07:20 56.46712 -5.39931 62 ft 53 kts 185°
2026-04-30 07:20 56.46163 -5.40031 85 ft 98 kts 183°
2026-04-30 07:20 56.45515 -5.40394 384 ft 102 kts 213°
2026-04-30 07:20 56.45154 -5.41503 672 ft 106 kts 265°
2026-04-30 07:21 56.45254 -5.42800 1024 ft 103 kts 280°
2026-04-30 07:21 56.45373 -5.44148 1385 ft 111 kts 278°
2026-04-30 07:21 56.45511 -5.45516 1799 ft 112 kts 277°
2026-04-30 07:21 56.45678 -5.46916 2227 ft 114 kts 278°
2026-04-30 07:22 56.46137 -5.49818 2821 ft 130 kts 302°
2026-04-30 07:22 56.46901 -5.50661 3086 ft 131 kts 354°
2026-04-30 07:22 56.47795 -5.50791 3389 ft 132 kts 358°
2026-04-30 07:23 56.48718 -5.50924 3675 ft 134 kts 358°
2026-04-30 07:23 56.49652 -5.51048 3960 ft 135 kts 358°
2026-04-30 07:23 56.50588 -5.51172 4259 ft 135 kts 358°
2026-04-30 07:23 56.51531 -5.51291 4541 ft 136 kts 358°
2026-04-30 07:24 56.52484 -5.51406 4811 ft 137 kts 358°
2026-04-30 07:24 56.53115 -5.51480 5018 ft 137 kts 358°
2026-04-30 07:24 56.54065 -5.51588 5316 ft 137 kts 358°
2026-04-30 07:24 56.55021 -5.51694 5595 ft 138 kts 358°
2026-04-30 07:25 56.55984 -5.51802 5875 ft 139 kts 358°
2026-04-30 07:25 56.57356 -5.51953 6008 ft 160 kts 358°
2026-04-30 07:25 56.58117 -5.52032 6008 ft 171 kts 358°
2026-04-30 07:25 56.59344 -5.52154 6007 ft 180 kts 358°
2026-04-30 07:26 56.60589 -5.52274 5976 ft 177 kts 358°
2026-04-30 07:26 56.61775 -5.52390 6000 ft 169 kts 358°
2026-04-30 07:26 56.62956 -5.52504 5999 ft 171 kts 358°
2026-04-30 07:26 56.64134 -5.52615 6002 ft 173 kts 358°
2026-04-30 07:27 56.65351 -5.52724 6000 ft 176 kts 358°
2026-04-30 07:27 56.66576 -5.52836 5991 ft 175 kts 358°
2026-04-30 07:27 56.67784 -5.52941 5991 ft 173 kts 358°
2026-04-30 07:27 56.68956 -5.53039 6003 ft 164 kts 357°
2026-04-30 07:28 56.70104 -5.53387 5991 ft 169 kts 345°
2026-04-30 07:28 56.71238 -5.53956 5991 ft 168 kts 343°
2026-04-30 07:28 56.72375 -5.54537 5992 ft 171 kts 343°
2026-04-30 07:28 56.73527 -5.55121 6004 ft 175 kts 344°
2026-04-30 07:29 56.74704 -5.55716 5990 ft 174 kts 344°
2026-04-30 07:29 56.75853 -5.56299 5993 ft 175 kts 344°
2026-04-30 07:29 56.77026 -5.56892 6005 ft 177 kts 344°
2026-04-30 07:29 56.78223 -5.57500 5989 ft 177 kts 343°
2026-04-30 07:30 56.80564 -5.58683 6007 ft 177 kts 343°
2026-04-30 07:30 56.81756 -5.59291 5984 ft 177 kts 343°
2026-04-30 07:30 56.82937 -5.59890 5979 ft 175 kts 343°
2026-04-30 07:31 56.84109 -5.60484 5979 ft 175 kts 343°
2026-04-30 07:31 56.85288 -5.61082 5967 ft 175 kts 344°
2026-04-30 07:31 56.86443 -5.61668 5980 ft 171 kts 343°
2026-04-30 07:31 56.87580 -5.62253 5986 ft 170 kts 343°
2026-04-30 07:32 56.88718 -5.62831 5987 ft 170 kts 343°
2026-04-30 07:32 56.89872 -5.63420 5997 ft 174 kts 343°
2026-04-30 07:32 56.91039 -5.64012 5993 ft 174 kts 343°
2026-04-30 07:32 56.92196 -5.64603 5996 ft 172 kts 342°
2026-04-30 07:33 56.93361 -5.65198 5989 ft 176 kts 343°
2026-04-30 07:33 56.94520 -5.65787 5980 ft 174 kts 343°
2026-04-30 07:33 56.95682 -5.66378 5984 ft 173 kts 343°
2026-04-30 07:33 56.96858 -5.66982 5983 ft 176 kts 343°
2026-04-30 07:34 56.98039 -5.67583 5977 ft 175 kts 343°
2026-04-30 07:34 56.99201 -5.68182 5976 ft 173 kts 342°
2026-04-30 07:34 57.00353 -5.68775 5973 ft 172 kts 342°
2026-04-30 07:34 57.01501 -5.69364 5974 ft 171 kts 342°
2026-04-30 07:35 57.02644 -5.69950 5971 ft 170 kts 342°
2026-04-30 07:35 57.03786 -5.70537 5974 ft 170 kts 342°
2026-04-30 07:35 57.04930 -5.71126 5983 ft 173 kts 342°
2026-04-30 07:35 57.06095 -5.71725 5978 ft 174 kts 342°
2026-04-30 07:36 57.07256 -5.72322 5980 ft 173 kts 342°
2026-04-30 07:36 57.08412 -5.72916 5977 ft 172 kts 342°
2026-04-30 07:36 57.09558 -5.73506 5980 ft 171 kts 343°
2026-04-30 07:36 57.10700 -5.74096 5973 ft 170 kts 342°
2026-04-30 07:37 57.11840 -5.74684 5972 ft 170 kts 342°
2026-04-30 07:37 57.12965 -5.75265 5973 ft 170 kts 342°
2026-04-30 07:37 57.14116 -5.75859 5970 ft 170 kts 342°
2026-04-30 07:37 57.15240 -5.76440 5970 ft 170 kts 342°
2026-04-30 07:38 57.16377 -5.77028 5969 ft 170 kts 342°
2026-04-30 07:38 57.17514 -5.77617 5977 ft 171 kts 342°
2026-04-30 07:38 57.18670 -5.78218 5974 ft 173 kts 342°
2026-04-30 07:38 57.19826 -5.78816 5978 ft 172 kts 342°
2026-04-30 07:39 57.20980 -5.79412 5977 ft 172 kts 342°
2026-04-30 07:39 57.22131 -5.80008 5979 ft 172 kts 342°
2026-04-30 07:39 57.23280 -5.80605 5975 ft 172 kts 342°
2026-04-30 07:39 57.24428 -5.81202 5977 ft 172 kts 342°
2026-04-30 07:40 57.25581 -5.81803 5980 ft 172 kts 342°
2026-04-30 07:40 57.26731 -5.82400 5975 ft 171 kts 342°
2026-04-30 07:40 57.27873 -5.82995 5975 ft 170 kts 342°
2026-04-30 07:40 57.29011 -5.83588 5973 ft 170 kts 342°
2026-04-30 07:41 57.30148 -5.84159 5969 ft 170 kts 348°
2026-04-30 07:41 57.31326 -5.84341 5967 ft 170 kts 352°
2026-04-30 07:41 57.32475 -5.84795 5987 ft 168 kts 342°
2026-04-30 07:41 57.33597 -5.85399 5996 ft 168 kts 341°
2026-04-30 07:42 57.34720 -5.86003 5999 ft 168 kts 342°
2026-04-30 07:42 57.35846 -5.86600 5996 ft 168 kts 342°
2026-04-30 07:42 57.36972 -5.87196 5992 ft 169 kts 342°
2026-04-30 07:42 57.38101 -5.87795 5995 ft 169 kts 342°
2026-04-30 07:43 57.39218 -5.88386 5990 ft 169 kts 342°
2026-04-30 07:43 57.40347 -5.88985 5996 ft 169 kts 342°
2026-04-30 07:43 57.41477 -5.89585 6003 ft 169 kts 342°
2026-04-30 07:43 57.42605 -5.90184 5991 ft 169 kts 342°
2026-04-30 07:44 57.43732 -5.90784 5998 ft 168 kts 342°
2026-04-30 07:44 57.44860 -5.91384 5992 ft 168 kts 342°
2026-04-30 07:44 57.45987 -5.91984 5993 ft 168 kts 342°
2026-04-30 07:44 57.47115 -5.92585 5998 ft 168 kts 342°
2026-04-30 07:45 57.48244 -5.93186 5994 ft 168 kts 342°
2026-04-30 07:45 57.49368 -5.93785 5992 ft 168 kts 342°
2026-04-30 07:45 57.50481 -5.94380 5992 ft 168 kts 342°
2026-04-30 07:45 57.51604 -5.94979 5991 ft 168 kts 342°
2026-04-30 07:46 57.52730 -5.95581 5997 ft 168 kts 342°
2026-04-30 07:46 57.53854 -5.96182 5994 ft 168 kts 342°
2026-04-30 07:46 57.54979 -5.96779 6000 ft 169 kts 342°
2026-04-30 07:46 57.56107 -5.97383 6000 ft 169 kts 341°
2026-04-30 07:47 57.57240 -5.97994 5998 ft 169 kts 342°
2026-04-30 07:47 57.58372 -5.98601 5997 ft 169 kts 341°
2026-04-30 07:47 57.59499 -5.99206 5997 ft 169 kts 341°
2026-04-30 07:47 57.60627 -5.99811 5997 ft 168 kts 341°
2026-04-30 07:48 57.61750 -6.00415 6007 ft 168 kts 341°
2026-04-30 07:48 57.62873 -6.01018 5996 ft 168 kts 341°
2026-04-30 07:48 57.63996 -6.01622 6002 ft 168 kts 341°
2026-04-30 07:48 57.65120 -6.02227 5991 ft 168 kts 341°
2026-04-30 07:49 57.66240 -6.02830 5993 ft 168 kts 341°
2026-04-30 07:49 57.67363 -6.03435 5993 ft 168 kts 341°
2026-04-30 07:49 57.68486 -6.04041 5993 ft 168 kts 341°
2026-04-30 07:49 57.69607 -6.04646 5999 ft 168 kts 341°
2026-04-30 07:50 57.70729 -6.05252 5993 ft 168 kts 341°
2026-04-30 07:50 57.71851 -6.05858 5994 ft 168 kts 341°
2026-04-30 07:50 57.72973 -6.06464 5995 ft 168 kts 341°
2026-04-30 07:50 57.74095 -6.07071 5998 ft 168 kts 341°
2026-04-30 07:51 57.75216 -6.07678 5996 ft 168 kts 341°
2026-04-30 07:51 57.76339 -6.08286 5995 ft 168 kts 341°
2026-04-30 07:51 57.77462 -6.08895 5996 ft 168 kts 341°
2026-04-30 07:51 57.78582 -6.09502 5999 ft 168 kts 341°
2026-04-30 07:52 57.79706 -6.10112 6005 ft 168 kts 341°
2026-04-30 07:52 57.80813 -6.10713 5998 ft 168 kts 341°
2026-04-30 07:52 57.81933 -6.11322 5997 ft 168 kts 341°
2026-04-30 07:52 57.83059 -6.11934 5998 ft 168 kts 341°
2026-04-30 07:53 57.84183 -6.12545 6005 ft 168 kts 341°
2026-04-30 07:53 57.85304 -6.13156 5996 ft 168 kts 341°
2026-04-30 07:53 57.86426 -6.13768 6001 ft 168 kts 341°
2026-04-30 07:53 57.87549 -6.14379 5996 ft 168 kts 341°
2026-04-30 07:54 57.88672 -6.14992 5998 ft 168 kts 341°
2026-04-30 07:54 57.89798 -6.15607 5996 ft 168 kts 341°
2026-04-30 07:54 57.90921 -6.16220 5996 ft 168 kts 341°
2026-04-30 07:54 57.92045 -6.16834 6011 ft 168 kts 341°
2026-04-30 07:55 57.93036 -6.17376 6008 ft 168 kts 341°
2026-04-30 07:55 57.94174 -6.17999 5997 ft 168 kts 340°
2026-04-30 07:55 57.95296 -6.18613 6007 ft 168 kts 340°
2026-04-30 07:55 57.96418 -6.19229 5999 ft 168 kts 340°
2026-04-30 07:56 57.97540 -6.19844 6001 ft 168 kts 340°
2026-04-30 07:56 57.98648 -6.20451 5999 ft 168 kts 340°
2026-04-30 07:56 57.99771 -6.21068 6001 ft 168 kts 340°
2026-04-30 07:56 58.00894 -6.21685 6000 ft 168 kts 340°
2026-04-30 07:57 58.02018 -6.22303 6004 ft 168 kts 340°
2026-04-30 07:57 58.03143 -6.22922 6000 ft 168 kts 340°
2026-04-30 07:57 58.04266 -6.23540 6005 ft 168 kts 340°
2026-04-30 07:57 58.05386 -6.24157 5998 ft 168 kts 340°
2026-04-30 07:58 58.06509 -6.24776 6002 ft 168 kts 340°
2026-04-30 07:58 58.07643 -6.25402 5843 ft 170 kts 340°
2026-04-30 07:58 58.08766 -6.26020 5592 ft 166 kts 340°
2026-04-30 07:58 58.09869 -6.26630 5339 ft 164 kts 340°
2026-04-30 07:59 58.10963 -6.27234 5084 ft 163 kts 340°
2026-04-30 07:59 58.12050 -6.27836 4828 ft 162 kts 340°
2026-04-30 07:59 58.13128 -6.28432 4568 ft 161 kts 340°
2026-04-30 08:00 58.15272 -6.29620 4031 ft 160 kts 340°
2026-04-30 08:00 58.16338 -6.30211 3778 ft 159 kts 340°
2026-04-30 08:00 58.17401 -6.30801 3526 ft 159 kts 340°
2026-04-30 08:00 58.18459 -6.31388 3271 ft 158 kts 340°
2026-04-30 08:01 58.19511 -6.31973 3016 ft 158 kts 340°
2026-04-30 08:01 58.20538 -6.32472 2967 ft 151 kts 350°
2026-04-30 08:01 58.21568 -6.32604 2959 ft 145 kts 355°
2026-04-30 08:01 58.22564 -6.32711 2958 ft 142 kts 355°
2026-04-30 08:02 58.24595 -6.33128 2701 ft 150 kts 349°
2026-04-30 08:02 58.25629 -6.33429 2578 ft 151 kts 346°
2026-04-30 08:03 58.27692 -6.34185 2327 ft 152 kts 349°
2026-04-30 08:03 58.29787 -6.34677 2076 ft 152 kts 351°
2026-04-30 08:03 58.30834 -6.34873 1975 ft 149 kts 353°
2026-04-30 08:04 58.31843 -6.35060 1967 ft 143 kts 352°
2026-04-30 08:04 58.32819 -6.35252 1961 ft 139 kts 352°
2026-04-30 08:04 58.33762 -6.35433 1965 ft 136 kts 350°
2026-04-30 08:04 58.34557 -6.36208 1970 ft 127 kts 309°
2026-04-30 08:05 58.35193 -6.37405 1970 ft 130 kts 309°
2026-04-30 08:05 58.35849 -6.38617 1978 ft 132 kts 309°
2026-04-30 08:05 58.36509 -6.39840 1980 ft 132 kts 309°
2026-04-30 08:05 58.37173 -6.41071 1978 ft 134 kts 309°
2026-04-30 08:06 58.37845 -6.42301 1981 ft 135 kts 316°
2026-04-30 08:06 58.38761 -6.42793 1959 ft 143 kts
2026-04-30 08:06 58.39607 -6.41909 1957 ft 140 kts 55°
2026-04-30 08:06 58.39856 -6.40256 1965 ft 127 kts 105°
2026-04-30 08:07 58.39484 -6.38834 1984 ft 119 kts 130°
2026-04-30 08:07 58.39023 -6.37496 1985 ft 121 kts 129°
2026-04-30 08:07 58.38531 -6.36187 1981 ft 119 kts 145°
2026-04-30 08:07 58.37784 -6.35838 1966 ft 112 kts 195°
2026-04-30 08:08 58.37013 -6.35941 1979 ft 113 kts 178°
2026-04-30 08:08 58.36226 -6.35852 1977 ft 114 kts 178°
2026-04-30 08:08 58.35432 -6.35734 1981 ft 115 kts 177°
2026-04-30 08:08 58.34635 -6.35605 1975 ft 115 kts 176°
2026-04-30 08:09 58.33843 -6.35454 1978 ft 114 kts 176°
2026-04-30 08:09 58.33080 -6.35308 1971 ft 106 kts 176°
2026-04-30 08:09 58.32389 -6.35175 1965 ft 96 kts 176°
2026-04-30 08:09 58.31734 -6.35050 1828 ft 94 kts 176°
2026-04-30 08:10 58.31075 -6.34925 1673 ft 96 kts 176°
2026-04-30 08:10 58.30410 -6.34800 1516 ft 96 kts 176°
2026-04-30 08:10 58.29747 -6.34671 1367 ft 94 kts 175°
2026-04-30 08:10 58.29105 -6.34548 1248 ft 92 kts 176°
2026-04-30 08:11 58.28475 -6.34428 1113 ft 89 kts 176°
2026-04-30 08:11 58.27860 -6.34311 982 ft 91 kts 176°
2026-04-30 08:11 58.27213 -6.34188 858 ft 95 kts 174°
2026-04-30 08:11 58.26559 -6.34063 724 ft 93 kts 174°
2026-04-30 08:12 58.25930 -6.33944 593 ft 88 kts 175°
2026-04-30 08:12 58.25315 -6.33825 485 ft 91 kts 174°
2026-04-30 08:12 58.24682 -6.33724 367 ft 92 kts 176°
2026-04-30 08:12 58.24038 -6.33636 322 ft 94 kts 172°
2026-04-30 08:13 58.23400 -6.33447 276 ft 92 kts 175°
2026-04-30 08:13 58.22752 -6.33352 142 ft 93 kts 174°
2026-04-30 08:13 58.22119 -6.33211 27 ft 89 kts 175°
2026-04-30 08:13 58.21747 -6.33143 22 ft 74 kts 174°
2026-04-30 08:14 58.21397 -6.33072 19 ft 11 kts 133°
2026-04-30 08:14 58.21423 -6.32936 16 ft 14 kts 60°
2026-04-30 08:14 58.21475 -6.32771 18 ft 14 kts 59°
2026-04-30 08:14 58.21528 -6.32597 19 ft 16 kts 62°
2026-04-30 08:15 58.21518 -6.32515 21 ft 10 kts 144°
2026-04-30 08:15 58.21455 -6.32445 19 ft 7 kts 143°
2026-04-30 08:15 58.21462 -6.32365 21 ft 8 kts 69°
2026-04-30 08:15 58.21437 -6.32278 22 ft 5 kts 175°
2026-04-30 08:16 58.21434 -6.32277 22 ft 0 kts 174°